createdAt,value
2023-05-20T00:00:25.211Z,240.02
2023-05-20T00:01:25.250Z,231.00
2023-05-20T00:02:25.356Z,241.09
2023-05-20T00:03:25.624Z,238.61
2023-05-20T00:04:25.432Z,238.77
2023-05-20T00:05:25.479Z,236.20
2023-05-20T00:06:25.530Z,240.86
2023-05-20T00:07:25.564Z,250.00
2023-05-20T00:08:25.615Z,234.42
2023-05-20T00:09:25.659Z,240.40
2023-05-20T00:10:25.736Z,246.03
2023-05-20T00:11:25.786Z,240.08
2023-05-20T00:12:25.844Z,232.11
2023-05-20T00:13:25.898Z,235.11
2023-05-20T00:14:25.926Z,249.57
2023-05-20T00:15:25.991Z,240.88
2023-05-20T00:16:26.078Z,244.59
2023-05-20T00:17:26.133Z,240.56
2023-05-20T00:18:26.157Z,235.67
2023-05-20T00:19:26.259Z,241.63
2023-05-20T00:20:26.263Z,240.66
2023-05-20T00:21:26.411Z,250.00
2023-05-20T00:22:26.372Z,243.08
2023-05-20T00:23:26.413Z,240.98
2023-05-20T00:24:26.468Z,236.93
2023-05-20T00:25:26.535Z,234.46
2023-05-20T00:26:26.590Z,245.90
2023-05-20T00:27:26.624Z,243.83
2023-05-20T00:28:26.760Z,242.51
2023-05-20T00:29:26.739Z,237.34
2023-05-20T00:30:26.815Z,236.29
2023-05-20T00:31:26.896Z,231.78
2023-05-20T00:32:27.163Z,242.68
2023-05-20T00:33:26.962Z,235.61
2023-05-20T00:34:27.021Z,234.99
2023-05-20T00:35:27.057Z,229.11
2023-05-20T00:36:27.134Z,240.43
2023-05-20T00:37:27.180Z,234.66
2023-05-20T00:38:27.239Z,240.97
2023-05-20T00:39:27.270Z,243.25
2023-05-20T00:40:27.339Z,250.00
2023-05-20T00:41:27.391Z,237.69
2023-05-20T00:42:27.435Z,244.74
2023-05-20T00:43:27.589Z,245.41
2023-05-20T00:44:27.559Z,250.00
2023-05-20T00:45:27.588Z,239.71
2023-05-20T00:46:27.747Z,247.70
2023-05-20T00:47:27.701Z,244.27
2023-05-20T00:48:27.750Z,241.32
2023-05-20T00:49:27.875Z,244.52
2023-05-20T00:50:27.865Z,243.39
2023-05-20T00:51:27.917Z,247.27
2023-05-20T00:52:27.995Z,238.94
2023-05-20T00:53:28.049Z,243.66
2023-05-20T00:54:28.118Z,249.16
2023-05-20T00:55:28.163Z,248.21
2023-05-20T00:56:28.222Z,243.37
2023-05-20T00:57:28.265Z,242.97
2023-05-20T00:58:28.331Z,237.24
2023-05-20T00:59:28.386Z,235.61
2023-05-20T01:00:28.431Z,232.38
2023-05-20T01:01:28.545Z,237.16
2023-05-20T01:02:28.634Z,236.54
2023-05-20T01:03:28.735Z,233.48
2023-05-20T01:04:28.652Z,232.03
2023-05-20T01:05:28.798Z,234.43
2023-05-20T01:06:28.771Z,230.16
2023-05-20T01:07:28.817Z,228.21
2023-05-20T01:08:28.932Z,229.69
2023-05-20T01:09:28.943Z,233.78
2023-05-20T01:10:28.984Z,223.81
2023-05-20T01:11:29.051Z,222.16
2023-05-20T01:12:29.110Z,219.59
2023-05-20T01:13:29.152Z,222.86
2023-05-20T01:14:29.231Z,226.68
2023-05-20T01:15:29.347Z,224.80
2023-05-20T01:16:29.390Z,217.73
2023-05-20T01:17:29.392Z,220.78
2023-05-20T01:18:29.439Z,220.74
2023-05-20T01:19:29.554Z,221.00
2023-05-20T01:20:29.579Z,214.62
2023-05-20T01:21:29.625Z,217.53
2023-05-20T01:22:29.691Z,219.17
2023-05-20T01:23:29.761Z,225.60
2023-05-20T01:24:29.818Z,235.02
2023-05-20T01:25:29.885Z,228.36
2023-05-20T01:26:29.960Z,242.33
2023-05-20T01:27:30.087Z,235.55
2023-05-20T01:28:30.065Z,236.57
2023-05-20T01:29:30.110Z,243.50
2023-05-20T01:30:30.158Z,233.04
2023-05-20T01:31:30.271Z,243.66
2023-05-20T01:32:30.317Z,237.98
2023-05-20T01:33:30.366Z,237.38
2023-05-20T01:34:30.409Z,243.04
2023-05-20T01:35:30.454Z,238.79
2023-05-20T01:36:30.520Z,242.24
2023-05-20T01:37:30.580Z,245.39
2023-05-20T01:38:30.643Z,240.01
2023-05-20T01:39:30.730Z,241.66
2023-05-20T01:40:30.770Z,244.94
2023-05-20T01:41:30.845Z,244.43
2023-05-20T01:42:30.902Z,238.24
2023-05-20T01:43:30.961Z,246.72
2023-05-20T01:44:31.019Z,237.35
2023-05-20T01:45:31.102Z,243.39
2023-05-20T01:46:31.151Z,239.37
2023-05-20T01:47:31.267Z,243.17
2023-05-20T01:48:31.275Z,238.19
2023-05-20T01:49:31.317Z,244.31
2023-05-20T01:50:31.472Z,245.60
2023-05-20T01:51:31.438Z,233.49
2023-05-20T01:52:31.497Z,241.09
2023-05-20T01:53:31.561Z,249.15
2023-05-20T01:54:31.619Z,240.45
2023-05-20T01:55:31.753Z,244.65
2023-05-20T01:56:31.717Z,236.65
2023-05-20T01:57:31.772Z,236.04
2023-05-20T01:58:31.842Z,244.36
2023-05-20T01:59:31.895Z,235.83
2023-05-20T02:00:32.014Z,234.32
2023-05-20T02:01:32.030Z,238.71
2023-05-20T02:02:32.133Z,239.95
2023-05-20T02:03:32.136Z,241.94
2023-05-20T02:04:32.197Z,240.65
2023-05-20T02:05:32.348Z,241.34
2023-05-20T02:06:32.306Z,244.00
2023-05-20T02:07:32.344Z,242.21
2023-05-20T02:08:32.418Z,236.13
2023-05-20T02:09:32.468Z,240.57
2023-05-20T02:10:32.515Z,239.01
2023-05-20T02:11:32.573Z,250.00
2023-05-20T02:12:32.783Z,244.68
2023-05-20T02:13:32.703Z,250.00
2023-05-20T02:14:32.764Z,235.17
2023-05-20T02:15:32.921Z,245.17
2023-05-20T02:16:32.931Z,250.00
2023-05-20T02:17:32.950Z,242.89
2023-05-20T02:18:32.982Z,244.59
2023-05-20T02:19:33.086Z,242.01
2023-05-20T02:20:33.115Z,236.02
2023-05-20T02:21:33.181Z,249.24
2023-05-20T02:22:33.226Z,240.73
2023-05-20T02:23:33.288Z,243.05
2023-05-20T02:24:33.362Z,248.48
2023-05-20T02:25:33.675Z,241.68
2023-05-20T02:26:33.467Z,244.93
2023-05-20T02:27:33.549Z,241.95
2023-05-20T02:28:33.615Z,246.01
2023-05-20T02:29:33.658Z,247.64
2023-05-20T02:30:33.725Z,246.33
2023-05-20T02:31:33.787Z,240.08
2023-05-20T02:32:33.938Z,240.92
2023-05-20T02:33:33.968Z,244.44
2023-05-20T02:34:34.064Z,240.76
2023-05-20T02:35:34.173Z,244.86
2023-05-20T02:36:34.099Z,245.22
2023-05-20T02:37:34.145Z,245.51
2023-05-20T02:38:34.220Z,240.91
2023-05-20T02:39:34.277Z,246.81
2023-05-20T02:40:34.400Z,249.38
2023-05-20T02:41:34.420Z,244.55
2023-05-20T02:42:34.457Z,243.75
2023-05-20T02:43:34.541Z,239.77
2023-05-20T02:44:34.597Z,243.40
2023-05-20T02:45:34.784Z,240.85
2023-05-20T02:46:34.815Z,244.08
2023-05-20T02:47:34.829Z,246.51
2023-05-20T02:48:34.853Z,243.34
2023-05-20T02:49:34.919Z,243.26
2023-05-20T02:50:34.975Z,237.32
2023-05-20T02:51:35.041Z,237.67
2023-05-20T02:52:35.086Z,247.33
2023-05-20T02:53:35.158Z,241.14
2023-05-20T02:54:35.196Z,241.27
2023-05-20T02:55:35.426Z,233.86
2023-05-20T02:56:35.430Z,237.25
2023-05-20T02:57:35.397Z,238.43
2023-05-20T02:58:35.448Z,239.50
2023-05-20T02:59:35.516Z,237.60
2023-05-20T03:00:35.569Z,241.39
2023-05-20T03:01:35.689Z,244.00
2023-05-20T03:02:35.715Z,240.81
2023-05-20T03:03:35.761Z,244.45
2023-05-20T03:04:35.854Z,240.59
2023-05-20T03:05:35.974Z,243.59
2023-05-20T03:06:35.945Z,242.40
2023-05-20T03:07:36.000Z,244.48
2023-05-20T03:08:36.064Z,239.06
2023-05-20T03:09:36.119Z,231.87
2023-05-20T03:10:36.170Z,240.18
2023-05-20T03:11:36.249Z,240.94
2023-05-20T03:12:36.295Z,239.11
2023-05-20T03:13:36.367Z,238.91
2023-05-20T03:14:36.433Z,244.73
2023-05-20T03:15:36.765Z,240.96
2023-05-20T03:16:36.629Z,244.18
2023-05-20T03:17:36.742Z,242.01
2023-05-20T03:18:36.681Z,241.44
2023-05-20T03:19:36.731Z,236.93
2023-05-20T03:20:36.832Z,243.41
2023-05-20T03:21:36.843Z,237.08
2023-05-20T03:22:36.922Z,243.54
2023-05-20T03:23:36.972Z,245.55
2023-05-20T03:24:37.032Z,246.83
2023-05-20T03:25:37.084Z,242.70
2023-05-20T03:26:37.185Z,247.75
2023-05-20T03:27:37.218Z,245.99
2023-05-20T03:28:37.296Z,243.53
2023-05-20T03:29:37.343Z,250.00
2023-05-20T03:30:37.401Z,240.79
2023-05-20T03:31:37.525Z,243.71
2023-05-20T03:32:37.531Z,240.87
2023-05-20T03:33:37.587Z,236.56
2023-05-20T03:34:37.654Z,245.38
2023-05-20T03:35:37.751Z,241.28
2023-05-20T03:36:37.783Z,248.83
2023-05-20T03:37:37.838Z,244.75
2023-05-20T03:38:37.899Z,241.71
2023-05-20T03:39:37.946Z,241.06
2023-05-20T03:40:38.008Z,237.77
2023-05-20T03:41:38.104Z,238.87
2023-05-20T03:42:38.154Z,238.59
2023-05-20T03:43:38.195Z,241.06
2023-05-20T03:44:38.279Z,234.58
2023-05-20T03:45:38.320Z,231.01
2023-05-20T03:46:38.522Z,228.65
2023-05-20T03:47:38.526Z,238.05
2023-05-20T03:48:38.513Z,234.27
2023-05-20T03:49:38.595Z,238.14
2023-05-20T03:50:38.635Z,241.74
2023-05-20T03:51:38.687Z,242.89
2023-05-20T03:52:38.754Z,246.04
2023-05-20T03:53:38.827Z,242.64
2023-05-20T03:54:38.891Z,245.37
2023-05-20T03:55:38.940Z,249.54
2023-05-20T03:56:39.006Z,243.33
2023-05-20T03:57:39.072Z,243.72
2023-05-20T03:58:39.133Z,247.97
2023-05-20T03:59:39.204Z,243.73
2023-05-20T04:00:39.259Z,239.69
2023-05-20T04:01:39.393Z,250.00
2023-05-20T04:02:39.402Z,245.22
2023-05-20T04:03:39.514Z,245.99
2023-05-20T04:04:39.504Z,247.12
2023-05-20T04:05:39.568Z,238.42
2023-05-20T04:06:39.644Z,242.23
2023-05-20T04:07:39.713Z,237.35
2023-05-20T04:08:39.757Z,238.15
2023-05-20T04:09:39.814Z,233.77
2023-05-20T04:10:39.876Z,241.40
2023-05-20T04:11:39.946Z,243.49
2023-05-20T04:12:39.997Z,231.80
2023-05-20T04:13:40.069Z,238.81
2023-05-20T04:14:40.149Z,237.57
2023-05-20T04:15:40.197Z,240.32
2023-05-20T04:16:40.282Z,234.78
2023-05-20T04:17:40.343Z,232.86
2023-05-20T04:18:40.404Z,235.82
2023-05-20T04:19:40.466Z,237.12
2023-05-20T04:20:40.498Z,233.53
2023-05-20T04:21:40.559Z,228.04
2023-05-20T04:22:40.624Z,230.57
2023-05-20T04:23:40.700Z,228.04
2023-05-20T04:24:40.747Z,226.25
2023-05-20T04:25:40.971Z,230.80
2023-05-20T04:26:40.857Z,232.16
2023-05-20T04:27:40.909Z,228.74
2023-05-20T04:28:40.991Z,228.52
2023-05-20T04:29:41.042Z,223.15
2023-05-20T04:30:41.107Z,231.05
2023-05-20T04:31:41.218Z,231.46
2023-05-20T04:32:41.250Z,240.25
2023-05-20T04:33:41.303Z,242.19
2023-05-20T04:34:41.354Z,237.29
2023-05-20T04:35:41.412Z,249.63
2023-05-20T04:36:41.461Z,241.31
2023-05-20T04:37:41.518Z,238.84
2023-05-20T04:38:41.588Z,243.75
2023-05-20T04:39:41.655Z,250.00
2023-05-20T04:40:41.699Z,245.02
2023-05-20T04:41:41.751Z,245.51
2023-05-20T04:42:41.835Z,240.89
2023-05-20T04:43:41.895Z,245.32
2023-05-20T04:44:42.472Z,246.01
2023-05-20T04:45:42.014Z,239.30
2023-05-20T04:46:42.065Z,240.23
2023-05-20T04:47:42.187Z,248.20
2023-05-20T04:48:42.185Z,239.58
2023-05-20T04:49:42.241Z,239.21
2023-05-20T04:50:42.279Z,243.88
2023-05-20T04:51:42.338Z,242.09
2023-05-20T04:52:42.407Z,243.46
2023-05-20T04:53:44.716Z,246.46
2023-05-20T04:54:42.435Z,250.59
2023-05-20T04:55:42.436Z,247.81
2023-05-20T04:56:42.421Z,250.00
2023-05-20T04:57:42.795Z,240.58
2023-05-20T04:58:42.428Z,244.59
2023-05-20T04:59:42.415Z,246.03
2023-05-20T05:00:42.399Z,243.73
2023-05-20T05:01:42.412Z,237.43
2023-05-20T05:02:42.464Z,241.71
2023-05-20T05:03:42.438Z,243.77
2023-05-20T05:04:42.442Z,243.81
2023-05-20T05:05:42.378Z,238.77
2023-05-20T05:06:42.353Z,236.39
2023-05-20T05:07:42.362Z,246.70
2023-05-20T05:08:42.345Z,244.80
2023-05-20T05:09:42.338Z,243.14
2023-05-20T05:10:42.333Z,241.96
2023-05-20T05:11:42.333Z,249.78
2023-05-20T05:12:42.324Z,247.60
2023-05-20T05:13:42.317Z,244.14
2023-05-20T05:14:42.296Z,243.87
2023-05-20T05:15:42.320Z,243.13
2023-05-20T05:16:42.288Z,244.82
2023-05-20T05:17:42.350Z,245.42
2023-05-20T05:18:42.316Z,241.94
2023-05-20T05:19:42.260Z,247.95
2023-05-20T05:20:42.283Z,245.56
2023-05-20T05:21:42.240Z,244.73
2023-05-20T05:22:42.249Z,244.06
2023-05-20T05:23:42.224Z,246.69
2023-05-20T05:24:42.226Z,246.25
2023-05-20T05:25:42.224Z,243.74
2023-05-20T05:26:42.202Z,243.97
2023-05-20T05:27:42.197Z,245.02
2023-05-20T05:28:42.196Z,245.40
2023-05-20T05:29:42.185Z,246.02
2023-05-20T05:30:42.178Z,245.65
2023-05-20T05:31:42.190Z,248.98
2023-05-20T05:32:42.333Z,246.84
2023-05-20T05:33:42.179Z,249.12
2023-05-20T05:34:42.186Z,246.31
2023-05-20T05:35:42.160Z,246.85
2023-05-20T05:36:42.135Z,244.71
2023-05-20T05:37:42.128Z,248.64
2023-05-20T05:38:42.159Z,246.86
2023-05-20T05:39:42.202Z,247.30
2023-05-20T05:40:42.194Z,245.05
2023-05-20T05:41:42.236Z,247.31
2023-05-20T05:42:42.382Z,242.66
2023-05-20T05:43:42.292Z,244.91
2023-05-20T05:44:42.313Z,247.58
2023-05-20T05:45:42.337Z,246.58
2023-05-20T05:46:42.402Z,247.46
2023-05-20T05:47:42.409Z,245.74
2023-05-20T05:48:42.407Z,243.08
2023-05-20T05:49:42.424Z,241.79
2023-05-20T05:50:42.426Z,244.96
2023-05-20T05:51:42.472Z,247.27
2023-05-20T05:52:42.496Z,246.51
2023-05-20T05:53:42.473Z,243.98
2023-05-20T05:54:42.492Z,248.24
2023-05-20T05:55:42.504Z,246.17
2023-05-20T05:56:42.523Z,246.92
2023-05-20T05:57:42.534Z,245.79
2023-05-20T05:58:42.533Z,245.09
2023-05-20T05:59:42.542Z,247.23
2023-05-20T06:00:42.565Z,246.61
2023-05-20T06:01:42.624Z,248.24
2023-05-20T06:02:42.605Z,249.46
2023-05-20T06:03:42.622Z,247.65
2023-05-20T06:04:42.572Z,247.97
2023-05-20T06:05:42.577Z,248.01
2023-05-20T06:06:42.600Z,250.00
2023-05-20T06:07:42.586Z,247.01
2023-05-20T06:08:42.600Z,247.81
2023-05-20T06:09:42.589Z,247.77
2023-05-20T06:10:42.616Z,249.01
2023-05-20T06:11:42.592Z,247.17
2023-05-20T06:12:42.569Z,249.37
2023-05-20T06:13:42.590Z,245.93
2023-05-20T06:14:42.574Z,248.88
2023-05-20T06:15:42.570Z,247.10
2023-05-20T06:16:42.602Z,248.14
2023-05-20T06:17:42.664Z,246.69
2023-05-20T06:18:42.597Z,244.00
2023-05-20T06:19:42.604Z,245.86
2023-05-20T06:20:42.575Z,246.47
2023-05-20T06:21:42.566Z,246.16
2023-05-20T06:22:42.596Z,248.36
2023-05-20T06:23:42.613Z,249.03
2023-05-20T06:24:42.635Z,245.47
2023-05-20T06:25:42.651Z,245.68
2023-05-20T06:26:42.710Z,247.75
2023-05-20T06:27:42.681Z,246.67
2023-05-20T06:28:42.728Z,240.37
2023-05-20T06:29:43.848Z,244.78
2023-05-20T06:30:42.808Z,247.24
2023-05-20T06:31:42.830Z,246.82
2023-05-20T06:32:42.865Z,245.11
2023-05-20T06:33:42.869Z,247.59
2023-05-20T06:34:42.892Z,245.17
2023-05-20T06:35:42.903Z,247.52
2023-05-20T06:36:42.896Z,247.23
2023-05-20T06:37:43.004Z,243.72
2023-05-20T06:38:42.946Z,244.42
2023-05-20T06:39:42.954Z,245.40
2023-05-20T06:40:42.972Z,243.58
2023-05-20T06:41:43.010Z,242.73
2023-05-20T06:42:43.023Z,240.23
2023-05-20T06:43:43.064Z,243.60
2023-05-20T06:44:43.086Z,242.26
2023-05-20T06:45:43.129Z,240.73
2023-05-20T06:46:43.220Z,240.51
2023-05-20T06:47:43.228Z,240.47
2023-05-20T06:48:43.246Z,242.84
2023-05-20T06:49:45.745Z,240.30
2023-05-20T06:50:43.277Z,244.34
2023-05-20T06:51:43.256Z,241.27
2023-05-20T06:52:43.271Z,238.97
2023-05-20T06:53:43.249Z,236.99
2023-05-20T06:54:43.261Z,236.80
2023-05-20T06:55:43.235Z,233.48
2023-05-20T06:56:43.239Z,236.38
2023-05-20T06:57:43.216Z,234.85
2023-05-20T06:58:43.212Z,237.43
2023-05-20T06:59:43.232Z,237.41
2023-05-20T07:00:43.213Z,238.20
2023-05-20T07:01:43.244Z,236.14
2023-05-20T07:02:43.209Z,234.63
2023-05-20T07:03:43.271Z,235.40
2023-05-20T07:04:43.173Z,234.27
2023-05-20T07:05:43.160Z,236.27
2023-05-20T07:06:43.172Z,236.21
2023-05-20T07:07:43.152Z,236.49
2023-05-20T07:08:43.148Z,233.29
2023-05-20T07:09:43.154Z,236.86
2023-05-20T07:10:43.141Z,236.06
2023-05-20T07:11:43.119Z,234.31
2023-05-20T07:12:43.119Z,235.62
2023-05-20T07:13:43.107Z,235.14
2023-05-20T07:14:43.097Z,233.71
2023-05-20T07:15:43.181Z,234.28
2023-05-20T07:16:43.227Z,233.18
2023-05-20T07:17:43.282Z,234.84
2023-05-20T07:18:43.330Z,237.02
2023-05-20T07:19:43.362Z,234.77
2023-05-20T07:20:43.409Z,235.37
2023-05-20T07:21:43.459Z,235.30
2023-05-20T07:22:43.514Z,237.18
2023-05-20T07:23:43.580Z,237.56
2023-05-20T07:24:43.652Z,236.51
2023-05-20T07:25:43.709Z,237.78
2023-05-20T07:26:43.777Z,236.86
2023-05-20T07:27:43.823Z,237.72
2023-05-20T07:28:43.873Z,238.17
2023-05-20T07:29:43.920Z,237.56
2023-05-20T07:30:43.981Z,240.48
2023-05-20T07:31:44.065Z,240.89
2023-05-20T07:32:44.189Z,233.43
2023-05-20T07:33:44.148Z,236.45
2023-05-20T07:34:44.201Z,236.45
2023-05-20T07:35:44.251Z,235.42
2023-05-20T07:36:44.322Z,235.28
2023-05-20T07:37:44.377Z,234.59
2023-05-20T07:38:56.582Z,237.09
2023-05-20T07:39:45.405Z,237.22
2023-05-20T07:40:44.386Z,235.33
2023-05-20T07:41:44.371Z,237.13
2023-05-20T07:42:44.367Z,236.74
2023-05-20T07:43:44.355Z,234.93
2023-05-20T07:44:44.357Z,232.28
2023-05-20T07:45:44.366Z,233.42
2023-05-20T07:46:44.369Z,232.41
2023-05-20T07:47:44.349Z,232.00
2023-05-20T07:48:44.321Z,230.91
2023-05-20T07:49:44.371Z,230.56
2023-05-20T07:50:44.396Z,230.42
2023-05-20T07:51:44.450Z,226.93
2023-05-20T07:52:55.843Z,229.16
2023-05-20T07:53:45.521Z,229.34
2023-05-20T07:54:44.489Z,229.21
2023-05-20T07:55:44.483Z,228.75
2023-05-20T07:56:44.490Z,229.43
2023-05-20T07:57:44.891Z,229.58
2023-05-20T07:58:44.474Z,228.02
2023-05-20T07:59:44.450Z,227.79
2023-05-20T08:00:44.454Z,224.15
2023-05-20T08:01:44.439Z,222.01
2023-05-20T08:02:44.622Z,226.45
2023-05-20T08:03:44.542Z,229.41
2023-05-20T08:04:44.558Z,225.17
2023-05-20T08:05:44.544Z,225.52
2023-05-20T08:06:44.604Z,223.92
2023-05-20T08:07:44.647Z,222.56
2023-05-20T08:08:44.688Z,223.41
2023-05-20T08:09:44.727Z,224.18
2023-05-20T08:10:44.787Z,218.90
2023-05-20T08:11:47.178Z,215.72
2023-05-20T08:12:44.832Z,220.49
2023-05-20T08:13:44.827Z,219.62
2023-05-20T08:14:44.795Z,216.60
2023-05-20T08:15:44.814Z,217.20
2023-05-20T08:16:44.880Z,216.23
2023-05-20T08:17:44.816Z,214.88
2023-05-20T08:18:44.803Z,213.72
2023-05-20T08:19:44.764Z,213.50
2023-05-20T08:20:44.770Z,215.87
2023-05-20T08:21:44.748Z,212.90
2023-05-20T08:22:44.759Z,213.57
2023-05-20T08:23:44.751Z,214.38
2023-05-20T08:24:44.733Z,215.12
2023-05-20T08:25:44.719Z,212.58
2023-05-20T08:26:44.724Z,213.22
2023-05-20T08:27:44.698Z,209.40
2023-05-20T08:28:44.709Z,208.66
2023-05-20T08:29:44.698Z,207.04
2023-05-20T08:30:44.707Z,206.35
2023-05-20T08:31:44.667Z,205.80
2023-05-20T08:32:44.688Z,208.20
2023-05-20T08:33:44.652Z,211.09
2023-05-20T08:34:44.660Z,203.82
2023-05-20T08:35:44.650Z,204.67
2023-05-20T08:36:44.635Z,204.24
2023-05-20T08:37:44.625Z,203.85
2023-05-20T08:38:44.627Z,203.64
2023-05-20T08:39:44.615Z,202.29
2023-05-20T08:40:44.605Z,203.38
2023-05-20T08:41:44.589Z,201.68
2023-05-20T08:42:44.598Z,198.54
2023-05-20T08:43:44.596Z,197.79
2023-05-20T08:44:44.588Z,194.34
2023-05-20T08:45:44.567Z,195.80
2023-05-20T08:46:44.571Z,195.92
2023-05-20T08:47:44.597Z,195.44
2023-05-20T08:48:44.561Z,194.52
2023-05-20T08:49:44.536Z,192.69
2023-05-20T08:50:44.529Z,196.39
2023-05-20T08:51:44.530Z,193.51
2023-05-20T08:52:44.515Z,188.84
2023-05-20T08:53:44.512Z,193.47
2023-05-20T08:54:44.514Z,186.83
2023-05-20T08:55:44.507Z,184.97
2023-05-20T08:56:44.504Z,186.56
2023-05-20T08:57:44.503Z,185.68
2023-05-20T08:58:44.482Z,185.12
2023-05-20T08:59:44.505Z,184.28
2023-05-20T09:00:44.576Z,186.26
2023-05-20T09:01:44.653Z,183.86
2023-05-20T09:02:44.681Z,179.60
2023-05-20T09:03:44.713Z,178.86
2023-05-20T09:04:44.751Z,182.60
2023-05-20T09:05:44.777Z,176.62
2023-05-20T09:06:44.897Z,175.83
2023-05-20T09:07:44.877Z,176.19
2023-05-20T09:08:44.926Z,175.90
2023-05-20T09:09:44.989Z,171.96
2023-05-20T09:10:45.024Z,174.65
2023-05-20T09:11:45.070Z,179.44
2023-05-20T09:12:45.100Z,175.98
2023-05-20T09:13:45.149Z,174.26
2023-05-20T09:14:45.191Z,173.62
2023-05-20T09:15:45.255Z,167.19
2023-05-20T09:16:45.356Z,166.87
2023-05-20T09:17:45.386Z,162.31
2023-05-20T09:18:45.419Z,160.97
2023-05-20T09:19:45.421Z,160.01
2023-05-20T09:20:45.465Z,160.68
2023-05-20T09:21:45.497Z,159.03
2023-05-20T09:22:45.558Z,161.90
2023-05-20T09:23:45.606Z,156.19
2023-05-20T09:24:45.649Z,157.72
2023-05-20T09:25:45.705Z,155.10
2023-05-20T09:26:45.747Z,153.53
2023-05-20T09:27:45.775Z,151.94
2023-05-20T09:28:45.834Z,146.91
2023-05-20T09:29:45.870Z,146.35
2023-05-20T09:30:46.273Z,148.07
2023-05-20T09:31:46.019Z,147.83
2023-05-20T09:32:46.056Z,148.38
2023-05-20T09:33:46.071Z,152.00
2023-05-20T09:34:46.125Z,151.06
2023-05-20T09:35:46.163Z,155.88
2023-05-20T09:36:46.208Z,151.05
2023-05-20T09:37:46.246Z,150.41
2023-05-20T09:38:46.297Z,150.20
2023-05-20T09:39:46.340Z,145.08
2023-05-20T09:40:46.404Z,145.03
2023-05-20T09:41:46.447Z,143.74
2023-05-20T09:42:46.503Z,140.51
2023-05-20T09:43:46.552Z,143.88
2023-05-20T09:44:46.591Z,143.65
2023-05-20T09:45:46.648Z,148.77
2023-05-20T09:46:46.691Z,144.44
2023-05-20T09:47:46.756Z,143.72
2023-05-20T09:48:46.785Z,144.54
2023-05-20T09:49:46.813Z,141.96
2023-05-20T09:50:46.877Z,141.75
2023-05-20T09:51:46.909Z,141.56
2023-05-20T09:52:46.974Z,138.62
2023-05-20T09:53:47.049Z,139.20
2023-05-20T09:54:47.129Z,135.17
2023-05-20T09:55:47.149Z,135.76
2023-05-20T09:56:47.186Z,133.54
2023-05-20T09:57:47.253Z,137.64
2023-05-20T09:58:47.292Z,138.42
2023-05-20T09:59:47.341Z,137.66
2023-05-20T10:00:47.404Z,134.77
2023-05-20T10:01:47.527Z,134.76
2023-05-20T10:02:47.569Z,140.25
2023-05-20T10:03:47.686Z,139.22
2023-05-20T10:04:47.607Z,141.40
2023-05-20T10:05:47.648Z,141.87
2023-05-20T10:06:47.688Z,140.63
2023-05-20T10:07:47.738Z,138.45
2023-05-20T10:08:47.783Z,141.83
2023-05-20T10:09:47.849Z,142.36
2023-05-20T10:10:47.890Z,142.12
2023-05-20T10:11:47.963Z,147.14
2023-05-20T10:12:48.006Z,141.01
2023-05-20T10:13:48.064Z,141.68
2023-05-20T10:14:48.104Z,143.12
2023-05-20T10:15:48.169Z,144.08
2023-05-20T10:16:48.208Z,140.73
2023-05-20T10:17:48.282Z,143.02
2023-05-20T10:18:48.404Z,143.35
2023-05-20T10:19:48.362Z,143.33
2023-05-20T10:20:48.440Z,142.11
2023-05-20T10:21:48.473Z,143.61
2023-05-20T10:22:48.537Z,141.02
2023-05-20T10:23:48.591Z,146.72
2023-05-20T10:24:48.637Z,139.66
2023-05-20T10:25:48.702Z,140.61
2023-05-20T10:26:48.752Z,144.63
2023-05-20T10:27:48.809Z,145.85
2023-05-20T10:28:48.841Z,144.75
2023-05-20T10:30:48.954Z,140.93
2023-05-20T10:31:49.007Z,139.97
2023-05-20T10:32:49.104Z,144.37
2023-05-20T10:33:49.316Z,145.27
2023-05-20T10:34:49.153Z,145.51
2023-05-20T10:35:49.180Z,144.95
2023-05-20T10:36:49.242Z,147.51
2023-05-20T10:37:49.278Z,146.12
2023-05-20T10:38:49.333Z,147.71
2023-05-20T10:39:49.393Z,144.25
2023-05-20T10:40:49.437Z,142.45
2023-05-20T10:41:49.495Z,142.82
2023-05-20T10:42:50.121Z,143.14
2023-05-20T10:43:49.585Z,142.29
2023-05-20T10:44:49.622Z,146.56
2023-05-20T10:45:49.672Z,141.78
2023-05-20T10:47:49.770Z,140.50
2023-05-20T10:48:49.844Z,137.41
2023-05-20T10:49:49.682Z,137.23
2023-05-20T10:50:49.670Z,140.77
2023-05-20T10:51:49.660Z,140.26
2023-05-20T10:52:49.655Z,136.30
2023-05-20T10:53:49.649Z,137.78
2023-05-20T10:54:51.770Z,131.94
2023-05-20T10:55:49.663Z,129.41
2023-05-20T10:56:49.650Z,129.36
2023-05-20T10:57:49.653Z,132.68
2023-05-20T10:58:49.707Z,136.23
2023-05-20T10:59:49.743Z,133.72
2023-05-20T11:00:50.963Z,129.32
2023-05-20T11:01:49.850Z,126.59
2023-05-20T11:02:49.968Z,126.06
2023-05-20T11:03:50.034Z,125.33
2023-05-20T11:04:50.025Z,120.94
2023-05-20T11:05:50.073Z,118.48
2023-05-20T11:06:50.119Z,122.43
2023-05-20T11:07:50.155Z,118.97
2023-05-20T11:08:50.221Z,119.58
2023-05-20T11:09:50.281Z,113.80
2023-05-20T11:10:50.316Z,113.74
2023-05-20T11:11:50.369Z,110.23
2023-05-20T11:12:50.450Z,105.75
2023-05-20T11:13:50.491Z,104.60
2023-05-20T11:14:50.571Z,101.24
2023-05-20T11:15:50.561Z,103.37
2023-05-20T11:16:50.647Z,102.14
2023-05-20T11:17:50.733Z,97.65
2023-05-20T11:18:50.762Z,95.06
2023-05-20T11:19:50.768Z,94.19
2023-05-20T11:20:50.809Z,95.17
2023-05-20T11:21:50.882Z,94.19
2023-05-20T11:22:50.930Z,91.83
2023-05-20T11:23:50.985Z,94.27
2023-05-20T11:24:51.022Z,88.23
2023-05-20T11:25:51.087Z,83.25
2023-05-20T11:26:51.138Z,81.68
2023-05-20T11:27:51.194Z,73.77
2023-05-20T11:28:51.229Z,77.84
2023-05-20T11:29:51.284Z,79.25
2023-05-20T11:30:51.343Z,75.86
2023-05-20T11:31:51.442Z,66.94
2023-05-20T11:32:51.484Z,71.82
2023-05-20T11:33:51.501Z,60.46
2023-05-20T11:34:51.542Z,65.70
2023-05-20T11:35:51.608Z,66.54
2023-05-20T11:36:51.638Z,57.85
2023-05-20T11:37:51.712Z,51.36
2023-05-20T11:38:51.805Z,48.54
2023-05-20T11:39:52.817Z,52.82
2023-05-20T11:40:52.027Z,53.99
2023-05-20T11:41:51.935Z,54.15
2023-05-20T11:42:51.969Z,52.58
2023-05-20T11:43:52.044Z,52.70
2023-05-20T11:44:52.084Z,49.11
2023-05-20T11:45:52.182Z,41.05
2023-05-20T11:46:52.210Z,40.91
2023-05-20T11:47:52.264Z,41.05
2023-05-20T11:48:52.333Z,46.43
2023-05-20T11:49:52.363Z,44.19
2023-05-20T11:50:52.430Z,45.30
2023-05-20T11:51:52.499Z,44.62
2023-05-20T11:52:52.529Z,42.69
2023-05-20T11:53:52.595Z,43.09
2023-05-20T11:54:52.683Z,42.05
2023-05-20T11:55:52.703Z,40.34
2023-05-20T11:56:52.758Z,37.95
2023-05-20T11:57:52.808Z,37.27
2023-05-20T11:58:52.861Z,39.21
2023-05-20T11:59:52.910Z,35.83
2023-05-20T12:00:59.034Z,26.02
2023-05-20T12:01:53.972Z,26.20
2023-05-20T12:02:53.080Z,21.18
2023-05-20T12:03:53.024Z,19.70
2023-05-20T12:04:53.007Z,19.54
2023-05-20T12:05:52.938Z,26.84
2023-05-20T12:06:52.904Z,24.98
2023-05-20T12:07:53.809Z,26.06
2023-05-20T12:08:52.957Z,25.25
2023-05-20T12:09:52.889Z,25.65
2023-05-20T12:10:52.877Z,27.61
2023-05-20T12:11:52.997Z,28.66
2023-05-20T12:12:52.928Z,33.95
2023-05-20T12:13:52.980Z,35.44
2023-05-20T12:14:53.047Z,35.01
2023-05-20T12:15:53.140Z,29.81
2023-05-20T12:16:53.144Z,25.00
2023-05-20T12:17:53.246Z,31.87
2023-05-20T12:18:53.410Z,37.59
2023-05-20T12:19:53.294Z,27.02
2023-05-20T12:20:53.329Z,28.38
2023-05-20T12:21:53.465Z,27.22
2023-05-20T12:22:53.455Z,27.19
2023-05-20T12:23:53.471Z,26.22
2023-05-20T12:24:54.749Z,30.93
2023-05-20T12:25:53.563Z,34.58
2023-05-20T12:26:53.614Z,38.01
2023-05-20T12:27:53.676Z,35.94
2023-05-20T12:28:53.715Z,30.36
2023-05-20T12:29:53.760Z,31.39
2023-05-20T12:30:53.811Z,34.05
2023-05-20T12:31:53.882Z,26.94
2023-05-20T12:32:54.089Z,25.80